| time (UTC) | temp C | wind direction | speed KPH | gust KPH | rain 1hr cm | rain 24hr cm | rain mn cm | humidity % | barometer mb |
| 20260507023452 | 16 | 204 | 0.0 | 0.0 | 0.00 | 0.00 | 0.00 | 82 | 1015.4 |
| 20260507022949 | 17 | 220 | 0.0 | 0.0 | 0.00 | 0.00 | 0.00 | 82 | 1015.3 |
| 20260507022447 | 17 | 174 | 0.0 | 1.6 | 0.00 | 0.00 | 0.00 | 81 | 1015.4 |
| 20260507021942 | 17 | 198 | 0.0 | 0.0 | 0.00 | 0.00 | 0.00 | 81 | 1015.4 |
| 20260507021437 | 17 | 177 | 0.0 | 0.0 | 0.00 | 0.00 | 0.00 | 81 | 1015.6 |
| 20260507020935 | 17 | 228 | 0.0 | 0.0 | 0.00 | 0.00 | 0.00 | 80 | 1015.4 |
| 20260507020432 | 17 | 216 | 0.0 | 3.2 | 0.00 | 0.00 | 0.00 | 79 | 1015.2 |
| 20260507015929 | 17 | 163 | 0.0 | 1.6 | 0.00 | 0.00 | 0.00 | 78 | 1015.4 |
| 20260507015427 | 18 | 203 | 0.0 | 0.0 | 0.00 | 0.00 | 0.00 | 78 | 1015.2 |
| 20260507014924 | 18 | 236 | 0.0 | 0.0 | 0.00 | 0.00 | 0.00 | 76 | 1015.4 |
| 20260507014420 | 18 | 275 | 0.0 | 0.0 | 0.00 | 0.00 | 0.00 | 73 | 1014.9 |
| 20260507013917 | 18 | 138 | 0.0 | 0.0 | 0.00 | 0.00 | 0.00 | 73 | 1015.1 |
| 20260507013414 | 18 | 292 | 0.0 | 0.0 | 0.00 | 0.00 | 0.00 | 72 | 1015.1 |
| 20260507012912 | 18 | 211 | 0.0 | 0.0 | 0.00 | 0.00 | 0.00 | 70 | 1015.4 |
| 20260507012408 | 19 | 205 | 0.0 | 0.0 | 0.00 | 0.00 | 0.00 | 70 | 1015.2 |
| 20260507011904 | 19 | 211 | 0.0 | 0.0 | 0.00 | 0.00 | 0.00 | 68 | 1015.3 |
| 20260507011401 | 20 | 193 | 0.0 | 0.0 | 0.00 | 0.00 | 0.00 | 67 | 1015.3 |
| 20260507010855 | 19 | 210 | 0.0 | 0.0 | 0.00 | 0.00 | 0.00 | 69 | 1015.3 |
| 20260507010351 | 19 | 263 | 4.8 | 9.7 | 0.00 | 0.00 | 0.00 | 69 | 1015.1 |
| 20260507005849 | 20 | 199 | 0.0 | 0.0 | 0.00 | 0.00 | 0.00 | 68 | 1015.5 |
| 20260507005345 | 20 | 223 | 0.0 | 0.0 | 0.00 | 0.00 | 0.00 | 65 | 1015.5 |
| 20260507004842 | 19 | 266 | 0.0 | 3.2 | 0.00 | 0.00 | 0.00 | 66 | 1015.4 |
| 20260507004339 | 20 | 287 | 3.2 | 8.0 | 0.00 | 0.00 | 0.00 | 66 | 1015.4 |
| 20260507003836 | 19 | 249 | 1.6 | 3.2 | 0.00 | 0.00 | 0.00 | 67 | 1015.4 |
| 20260507003331 | 20 | 193 | 0.0 | 0.0 | 0.00 | 0.00 | 0.00 | 66 | 1015.2 |
| 20260507002826 | 20 | 236 | 0.0 | 0.0 | 0.00 | 0.00 | 0.00 | 66 | 1015.3 |
| 20260507002323 | 19 | 241 | 0.0 | 1.6 | 0.00 | 0.00 | 0.00 | 66 | 1015.4 |
| 20260507001820 | 20 | 235 | 3.2 | 4.8 | 0.00 | 0.00 | 0.00 | 65 | 1015.5 |
| 20260507001317 | 20 | 210 | 3.2 | 4.8 | 0.00 | 0.00 | 0.00 | 65 | 1015.3 |
| 20260507000813 | 20 | 253 | 3.2 | 9.7 | 0.00 | 0.00 | 0.00 | 63 | 1015.4 |
| 20260507000309 | 20 | 228 | 0.0 | 0.0 | 0.00 | 0.00 | 0.00 | 64 | 1015.2 |
| 20260506235806 | 20 | 245 | 3.2 | 8.0 | 0.00 | 0.00 | 0.00 | 65 | 1015.3 |
| 20260506235306 | 20 | 192 | 0.0 | 0.0 | 0.00 | 0.00 | 0.00 | 65 | 1015.4 |
| 20260506234753 | 20 | 225 | 1.6 | 3.2 | 0.00 | 0.00 | 0.00 | 64 | 1015.5 |
| 20260506234250 | 20 | 254 | 4.8 | 12.9 | 0.00 | 0.00 | 0.00 | 63 | 1015.4 |
| 20260506233743 | 20 | 251 | 0.0 | 1.6 | 0.00 | 0.00 | 0.00 | 64 | 1015.4 |
| 20260506233239 | 20 | 244 | 0.0 | 1.6 | 0.00 | 0.00 | 0.00 | 65 | 1015.2 |
| 20260506232735 | 20 | 254 | 0.0 | 1.6 | 0.00 | 0.00 | 0.00 | 64 | 1015.6 |
| 20260506232230 | 20 | 258 | 3.2 | 8.0 | 0.00 | 0.00 | 0.00 | 64 | 1015.2 |
| 20260506231728 | 20 | 238 | 0.0 | 1.6 | 0.00 | 0.00 | 0.00 | 65 | 1015.4 |
| 20260506231226 | 20 | 207 | 0.0 | 0.0 | 0.00 | 0.00 | 0.00 | 66 | 1015.5 |
| 20260506230723 | 21 | 221 | 0.0 | 1.6 | 0.00 | 0.00 | 0.00 | 64 | 1015.6 |
| 20260506230220 | 20 | 293 | 3.2 | 8.0 | 0.00 | 0.00 | 0.00 | 64 | 1015.5 |
| 20260506225716 | 20 | 220 | 4.8 | 9.7 | 0.00 | 0.00 | 0.00 | 64 | 1015.6 |
| 20260506225213 | 20 | 263 | 9.7 | 12.9 | 0.00 | 0.00 | 0.00 | 64 | 1015.9 |
| 20260506224709 | 21 | 199 | 0.0 | 1.6 | 0.00 | 0.00 | 0.00 | 65 | 1015.5 |
| 20260506224207 | 20 | 259 | 4.8 | 8.0 | 0.00 | 0.00 | 0.00 | 65 | 1015.8 |
| 20260506223703 | 20 | 247 | 0.0 | 1.6 | 0.00 | 0.00 | 0.00 | 67 | 1015.9 |
| 20260506223159 | 21 | 268 | 0.0 | 0.0 | 0.00 | 0.00 | 0.00 | 64 | 1016.0 |
| 20260506222656 | 20 | 278 | 1.6 | 3.2 | 0.00 | 0.00 | 0.00 | 64 | 1016.0 |
| 20260506222151 | 21 | 265 | 11.3 | 20.9 | 0.00 | 0.00 | 0.00 | 65 | 1015.9 |
| 20260506221649 | 21 | 232 | 6.4 | 9.7 | 0.00 | 0.00 | 0.00 | 65 | 1016.0 |
| 20260506221147 | 21 | 198 | 0.0 | 0.0 | 0.00 | 0.00 | 0.00 | 64 | 1016.1 |
| 20260506220643 | 21 | 255 | 4.8 | 11.3 | 0.00 | 0.00 | 0.00 | 64 | 1016.2 |
| 20260506220138 | 20 | 241 | 9.7 | 17.7 | 0.00 | 0.00 | 0.00 | 66 | 1016.4 |
| 20260506215635 | 20 | 257 | 9.7 | 14.5 | 0.00 | 0.00 | 0.00 | 65 | 1016.5 |
| 20260506215130 | 20 | 272 | 3.2 | 12.9 | 0.00 | 0.00 | 0.00 | 66 | 1016.4 |
| 20260506214628 | 21 | 244 | 4.8 | 11.3 | 0.00 | 0.00 | 0.00 | 65 | 1016.6 |
| 20260506214125 | 21 | 258 | 4.8 | 11.3 | 0.00 | 0.00 | 0.00 | 65 | 1016.4 |
| 20260506213624 | 21 | 234 | 8.0 | 12.9 | 0.00 | 0.00 | 0.00 | 66 | 1016.5 |
| 20260506213120 | 21 | 259 | 0.0 | 0.0 | 0.00 | 0.00 | 0.00 | 64 | 1016.7 |
| 20260506212618 | 21 | 234 | 1.6 | 4.8 | 0.00 | 0.00 | 0.00 | 64 | 1016.7 |
| 20260506212112 | 20 | 189 | 6.4 | 12.9 | 0.00 | 0.00 | 0.00 | 65 | 1016.9 |
| 20260506211608 | 20 | 228 | 0.0 | 0.0 | 0.00 | 0.00 | 0.00 | 64 | 1016.7 |
| 20260506211106 | 21 | 248 | 3.2 | 9.7 | 0.00 | 0.00 | 0.00 | 64 | 1016.8 |
| 20260506210602 | 21 | 219 | 4.8 | 9.7 | 0.00 | 0.00 | 0.00 | 65 | 1016.7 |
| 20260506210058 | 20 | 270 | 1.6 | 4.8 | 0.00 | 0.00 | 0.00 | 65 | 1016.8 |
| 20260506205555 | 20 | 215 | 1.6 | 3.2 | 0.00 | 0.00 | 0.00 | 64 | 1016.9 |
| 20260506205050 | 20 | 194 | 0.0 | 0.0 | 0.00 | 0.00 | 0.00 | 64 | 1016.8 |
| 20260506204549 | 20 | 258 | 4.8 | 11.3 | 0.00 | 0.00 | 0.00 | 65 | 1016.9 |
| 20260506204045 | 20 | 284 | 8.0 | 11.3 | 0.00 | 0.00 | 0.00 | 64 | 1016.7 |
| 20260506203544 | 20 | 250 | 0.0 | 1.6 | 0.00 | 0.00 | 0.00 | 66 | 1017.0 |
| 20260506203040 | 20 | 250 | 1.6 | 4.8 | 0.00 | 0.00 | 0.00 | 66 | 1017.0 |
| 20260506202538 | 20 | 276 | 4.8 | 4.8 | 0.00 | 0.00 | 0.00 | 65 | 1017.0 |
| 20260506202034 | 20 | 254 | 4.8 | 9.7 | 0.00 | 0.00 | 0.00 | 67 | 1017.0 |
| 20260506201532 | 20 | 266 | 0.0 | 1.6 | 0.00 | 0.00 | 0.00 | 67 | 1017.1 |
| 20260506201028 | 20 | 288 | 1.6 | 4.8 | 0.00 | 0.00 | 0.00 | 67 | 1017.0 |
| 20260506200524 | 20 | 206 | 1.6 | 4.8 | 0.00 | 0.00 | 0.00 | 70 | 1017.3 |
| 20260506200021 | 20 | 194 | 0.0 | 0.0 | 0.00 | 0.00 | 0.00 | 69 | 1017.3 |
| 20260506195518 | 20 | 257 | 14.5 | 17.7 | 0.00 | 0.00 | 0.00 | 70 | 1017.3 |
| 20260506195009 | 20 | 271 | 6.4 | 9.7 | 0.00 | 0.00 | 0.00 | 70 | 1017.4 |
| 20260506194507 | 20 | 242 | 8.0 | 12.9 | 0.00 | 0.00 | 0.00 | 71 | 1017.3 |
| 20260506194003 | 20 | 273 | 3.2 | 4.8 | 0.00 | 0.00 | 0.00 | 69 | 1017.3 |
| 20260506193500 | 20 | 255 | 4.8 | 8.0 | 0.00 | 0.00 | 0.00 | 71 | 1017.3 |
| 20260506192956 | 20 | 213 | 0.0 | 1.6 | 0.00 | 0.00 | 0.00 | 69 | 1017.4 |
| 20260506192454 | 20 | 227 | 0.0 | 0.0 | 0.00 | 0.00 | 0.00 | 71 | 1017.4 |
| 20260506191950 | 20 | 257 | 0.0 | 0.0 | 0.00 | 0.00 | 0.00 | 69 | 1017.4 |
| 20260506191447 | 20 | 264 | 4.8 | 11.3 | 0.00 | 0.00 | 0.00 | 71 | 1017.6 |
| 20260506190943 | 20 | 230 | 0.0 | 3.2 | 0.00 | 0.00 | 0.00 | 71 | 1017.5 |
| 20260506190440 | 20 | 240 | 4.8 | 8.0 | 0.00 | 0.00 | 0.00 | 70 | 1017.6 |
| 20260506185937 | 20 | 259 | 0.0 | 0.0 | 0.00 | 0.00 | 0.00 | 70 | 1017.6 |
| 20260506185434 | 20 | 276 | 1.6 | 8.0 | 0.00 | 0.00 | 0.00 | 70 | 1017.4 |
| 20260506184931 | 20 | 199 | 1.6 | 4.8 | 0.00 | 0.00 | 0.00 | 70 | 1017.6 |
| 20260506184428 | 20 | 260 | 1.6 | 3.2 | 0.00 | 0.00 | 0.00 | 71 | 1017.5 |
| 20260506183925 | 19 | 250 | 9.7 | 12.9 | 0.00 | 0.00 | 0.00 | 71 | 1017.6 |
| 20260506183420 | 19 | 250 | 4.8 | 9.7 | 0.00 | 0.00 | 0.00 | 71 | 1017.7 |
| 20260506182918 | 20 | 272 | 11.3 | 12.9 | 0.00 | 0.00 | 0.00 | 69 | 1017.9 |
| 20260506182415 | 20 | 243 | 4.8 | 9.7 | 0.00 | 0.00 | 0.00 | 69 | 1017.6 |
| 20260506181912 | 20 | 267 | 0.0 | 0.0 | 0.00 | 0.00 | 0.00 | 68 | 1018.0 |
| 20260506181410 | 20 | 241 | 3.2 | 8.0 | 0.00 | 0.00 | 0.00 | 68 | 1017.9 |
| 20260506180907 | 20 | 215 | 0.0 | 0.0 | 0.00 | 0.00 | 0.00 | 68 | 1017.9 |
| 20260506180403 | 19 | 209 | 0.0 | 0.0 | 0.00 | 0.00 | 0.00 | 68 | 1017.7 |
| 20260506175900 | 20 | 243 | 8.0 | 11.3 | 0.00 | 0.00 | 0.00 | 66 | 1017.8 |
| 20260506175356 | 20 | 157 | 0.0 | 0.0 | 0.00 | 0.00 | 0.00 | 62 | 1017.7 |
| 20260506174853 | 20 | 178 | 0.0 | 0.0 | 0.00 | 0.00 | 0.00 | 61 | 1017.7 |
| 20260506174351 | 20 | 145 | 0.0 | 0.0 | 0.00 | 0.00 | 0.00 | 63 | 1017.8 |
| 20260506173848 | 20 | 225 | 1.6 | 8.0 | 0.00 | 0.00 | 0.00 | 62 | 1017.5 |
| 20260506173345 | 19 | 227 | 0.0 | 0.0 | 0.00 | 0.00 | 0.00 | 64 | 1017.8 |
| 20260506172842 | 19 | 170 | 0.0 | 0.0 | 0.00 | 0.00 | 0.00 | 66 | 1017.8 |
| 20260506172338 | 19 | 212 | 0.0 | 1.6 | 0.00 | 0.00 | 0.00 | 65 | 1018.0 |
| 20260506171830 | 19 | 233 | 1.6 | 4.8 | 0.00 | 0.00 | 0.00 | 65 | 1017.9 |
| 20260506171327 | 18 | 107 | 0.0 | 0.0 | 0.00 | 0.00 | 0.00 | 66 | 1018.0 |
| 20260506170825 | 19 | 279 | 0.0 | 1.6 | 0.00 | 0.00 | 0.00 | 66 | 1017.7 |
| 20260506170320 | 18 | 269 | 0.0 | 0.0 | 0.00 | 0.00 | 0.00 | 68 | 1017.9 |
| 20260506165819 | 18 | 285 | 0.0 | 0.0 | 0.00 | 0.00 | 0.00 | 69 | 1017.8 |
| 20260506165316 | 18 | 255 | 0.0 | 0.0 | 0.00 | 0.00 | 0.00 | 69 | 1017.9 |
| 20260506164808 | 18 | 267 | 0.0 | 0.0 | 0.00 | 0.00 | 0.00 | 69 | 1017.6 |
| 20260506164304 | 18 | 212 | 0.0 | 0.0 | 0.00 | 0.00 | 0.00 | 69 | 1017.8 |
| 20260506163801 | 17 | 188 | 0.0 | 0.0 | 0.00 | 0.00 | 0.00 | 70 | 1017.8 |
| 20260506163256 | 17 | 257 | 0.0 | 0.0 | 0.00 | 0.00 | 0.00 | 70 | 1017.9 |
| 20260506162752 | 18 | 249 | 0.0 | 0.0 | 0.00 | 0.00 | 0.00 | 71 | 1017.7 |
| 20260506162250 | 17 | 268 | 0.0 | 0.0 | 0.00 | 0.00 | 0.00 | 71 | 1018.0 |
| 20260506161747 | 17 | 183 | 0.0 | 0.0 | 0.00 | 0.00 | 0.00 | 70 | 1017.8 |
| 20260506161244 | 17 | 349 | 0.0 | 0.0 | 0.00 | 0.00 | 0.00 | 70 | 1018.0 |
| 20260506160741 | 17 | 235 | 0.0 | 0.0 | 0.00 | 0.00 | 0.00 | 72 | 1017.9 |
| 20260506160238 | 17 | 224 | 0.0 | 0.0 | 0.00 | 0.00 | 0.00 | 71 | 1017.9 |
| 20260506155737 | 17 | 206 | 0.0 | 0.0 | 0.00 | 0.00 | 0.00 | 72 | 1017.8 |
| 20260506155234 | 17 | 223 | 0.0 | 0.0 | 0.00 | 0.00 | 0.00 | 71 | 1017.8 |
| 20260506153346 | 17 | 38 | 0.0 | 0.0 | 0.00 | 0.00 | 0.00 | 72 | 1017.8 |
| 20260506152843 | 17 | 119 | 0.0 | 0.0 | 0.00 | 0.00 | 0.00 | 71 | 1017.8 |
| 20260506152340 | 16 | 115 | 0.0 | 0.0 | 0.00 | 0.00 | 0.00 | 72 | 1017.8 |
| 20260506151839 | 16 | 157 | 0.0 | 0.0 | 0.00 | 0.00 | 0.00 | 73 | 1017.8 |
| 20260506151335 | 15 | 97 | 0.0 | 0.0 | 0.00 | 0.00 | 0.00 | 75 | 1017.9 |
| 20260506150832 | 15 | 131 | 0.0 | 0.0 | 0.00 | 0.00 | 0.00 | 76 | 1017.7 |
| 20260506150329 | 15 | 90 | 0.0 | 0.0 | 0.00 | 0.00 | 0.00 | 76 | 1017.8 |
| 20260506145826 | 14 | 113 | 0.0 | 0.0 | 0.00 | 0.00 | 0.00 | 79 | 1017.7 |
| 20260506145322 | 14 | 105 | 0.0 | 0.0 | 0.00 | 0.00 | 0.00 | 78 | 1017.7 |
| 20260506144820 | 13 | 95 | 0.0 | 0.0 | 0.00 | 0.00 | 0.00 | 79 | 1017.7 |
| 20260506144316 | 13 | 87 | 0.0 | 0.0 | 0.00 | 0.00 | 0.00 | 80 | 1017.8 |
| 20260506143815 | 13 | 119 | 0.0 | 0.0 | 0.00 | 0.00 | 0.00 | 82 | 1017.8 |
| 20260506143311 | 13 | 69 | 0.0 | 0.0 | 0.00 | 0.00 | 0.00 | 83 | 1017.6 |
| 20260506142810 | 12 | 88 | 0.0 | 0.0 | 0.00 | 0.00 | 0.00 | 83 | 1017.6 |
| 20260506142307 | 12 | 117 | 0.0 | 0.0 | 0.00 | 0.00 | 0.00 | 83 | 1017.7 |
| 20260506141806 | 12 | 86 | 0.0 | 0.0 | 0.00 | 0.00 | 0.00 | 84 | 1017.5 |
| 20260506141303 | 12 | 57 | 0.0 | 0.0 | 0.00 | 0.00 | 0.00 | 84 | 1017.6 |
| 20260506140801 | 12 | 77 | 0.0 | 0.0 | 0.00 | 0.00 | 0.00 | 85 | 1017.5 |
| 20260506140257 | 11 | 72 | 0.0 | 0.0 | 0.00 | 0.00 | 0.00 | 85 | 1017.3 |
| 20260506135755 | 11 | 132 | 0.0 | 0.0 | 0.00 | 0.00 | 0.00 | 86 | 1017.6 |
| 20260506135251 | 11 | 58 | 0.0 | 0.0 | 0.00 | 0.00 | 0.00 | 86 | 1017.5 |
| 20260506134748 | 11 | 117 | 0.0 | 0.0 | 0.00 | 0.00 | 0.00 | 87 | 1017.5 |
| 20260506134244 | 11 | 98 | 0.0 | 0.0 | 0.00 | 0.00 | 0.00 | 88 | 1017.4 |
| 20260506133741 | 10 | 104 | 0.0 | 0.0 | 0.00 | 0.00 | 0.00 | 89 | 1017.3 |
| 20260506133238 | 10 | 85 | 0.0 | 0.0 | 0.00 | 0.00 | 0.00 | 90 | 1017.5 |
| 20260506132735 | 10 | 81 | 0.0 | 0.0 | 0.00 | 0.00 | 0.00 | 90 | 1017.3 |
| 20260506132232 | 10 | 66 | 0.0 | 0.0 | 0.00 | 0.00 | 0.00 | 90 | 1017.4 |
| 20260506131730 | 10 | 100 | 0.0 | 0.0 | 0.00 | 0.00 | 0.00 | 90 | 1017.3 |
| 20260506131225 | 10 | 68 | 0.0 | 0.0 | 0.00 | 0.00 | 0.00 | 90 | 1017.2 |
| 20260506130722 | 10 | 75 | 0.0 | 0.0 | 0.00 | 0.00 | 0.00 | 90 | 1017.3 |
| 20260506130219 | 10 | 89 | 0.0 | 0.0 | 0.00 | 0.00 | 0.00 | 90 | 1017.4 |
| 20260506125718 | 10 | 118 | 0.0 | 0.0 | 0.00 | 0.00 | 0.00 | 90 | 1017.2 |
| 20260506125215 | 10 | 131 | 0.0 | 0.0 | 0.00 | 0.00 | 0.00 | 90 | 1017.0 |
| 20260506124713 | 10 | 116 | 0.0 | 0.0 | 0.00 | 0.00 | 0.00 | 90 | 1017.0 |
| 20260506124211 | 10 | 124 | 0.0 | 0.0 | 0.00 | 0.00 | 0.00 | 90 | 1017.0 |
| 20260506123708 | 10 | 69 | 0.0 | 0.0 | 0.00 | 0.00 | 0.00 | 90 | 1016.9 |
| 20260506123207 | 10 | 56 | 0.0 | 0.0 | 0.00 | 0.00 | 0.00 | 90 | 1016.9 |
| 20260506122703 | 10 | 53 | 0.0 | 0.0 | 0.00 | 0.00 | 0.00 | 90 | 1016.8 |
| 20260506122201 | 10 | 60 | 0.0 | 0.0 | 0.00 | 0.00 | 0.00 | 89 | 1016.9 |
| 20260506121658 | 10 | 75 | 0.0 | 0.0 | 0.00 | 0.00 | 0.00 | 89 | 1016.6 |
| 20260506121154 | 11 | 105 | 0.0 | 0.0 | 0.00 | 0.00 | 0.00 | 89 | 1016.6 |
| 20260506120652 | 10 | 108 | 0.0 | 3.2 | 0.00 | 0.00 | 0.00 | 90 | 1016.6 |
| 20260506120149 | 11 | 117 | 0.0 | 0.0 | 0.00 | 0.00 | 0.00 | 90 | 1016.4 |
| 20260506115648 | 11 | 99 | 0.0 | 0.0 | 0.00 | 0.00 | 0.00 | 90 | 1016.7 |
| 20260506115146 | 11 | 89 | 0.0 | 1.6 | 0.00 | 0.00 | 0.00 | 90 | 1016.6 |
| 20260506114643 | 11 | 52 | 0.0 | 0.0 | 0.00 | 0.00 | 0.00 | 90 | 1016.5 |
| 20260506114140 | 11 | 103 | 0.0 | 0.0 | 0.00 | 0.00 | 0.00 | 90 | 1016.6 |
| 20260506113639 | 11 | 47 | 0.0 | 0.0 | 0.00 | 0.00 | 0.00 | 90 | 1016.7 |
| 20260506113136 | 11 | 81 | 0.0 | 1.6 | 0.00 | 0.00 | 0.00 | 90 | 1016.5 |
| 20260506112632 | 11 | 94 | 0.0 | 0.0 | 0.00 | 0.00 | 0.00 | 90 | 1016.6 |
| 20260506112129 | 11 | 81 | 0.0 | 0.0 | 0.00 | 0.00 | 0.00 | 90 | 1016.4 |
| 20260506111627 | 11 | 37 | 0.0 | 0.0 | 0.00 | 0.00 | 0.00 | 90 | 1016.5 |
| 20260506111125 | 11 | 103 | 0.0 | 0.0 | 0.00 | 0.00 | 0.00 | 90 | 1016.5 |
| 20260506110622 | 11 | 56 | 0.0 | 0.0 | 0.00 | 0.00 | 0.00 | 90 | 1016.6 |
| 20260506110119 | 11 | 97 | 0.0 | 0.0 | 0.00 | 0.00 | 0.00 | 90 | 1016.4 |
| 20260506105615 | 11 | 75 | 0.0 | 0.0 | 0.00 | 0.00 | 0.00 | 90 | 1016.5 |
| 20260506105113 | 11 | 55 | 0.0 | 1.6 | 0.00 | 0.00 | 0.00 | 91 | 1016.5 |
| 20260506104611 | 11 | 76 | 0.0 | 0.0 | 0.00 | 0.00 | 0.00 | 91 | 1016.5 |
| 20260506104108 | 11 | 93 | 0.0 | 0.0 | 0.00 | 0.00 | 0.00 | 91 | 1016.5 |
| 20260506103605 | 11 | 53 | 0.0 | 0.0 | 0.00 | 0.00 | 0.00 | 91 | 1016.3 |
| 20260506103102 | 11 | 89 | 0.0 | 0.0 | 0.00 | 0.00 | 0.00 | 91 | 1016.3 |
| 20260506102600 | 11 | 92 | 0.0 | 0.0 | 0.00 | 0.00 | 0.00 | 91 | 1016.4 |
| 20260506102057 | 11 | 105 | 0.0 | 0.0 | 0.00 | 0.00 | 0.00 | 91 | 1016.5 |
| 20260506101554 | 11 | 109 | 0.0 | 0.0 | 0.00 | 0.00 | 0.00 | 91 | 1016.3 |
| 20260506101051 | 11 | 63 | 0.0 | 0.0 | 0.00 | 0.00 | 0.00 | 91 | 1016.5 |
| 20260506100549 | 11 | 64 | 0.0 | 0.0 | 0.00 | 0.00 | 0.00 | 91 | 1016.5 |
| 20260506100047 | 11 | 77 | 0.0 | 0.0 | 0.00 | 0.00 | 0.00 | 91 | 1016.3 |
| 20260506095545 | 11 | 93 | 0.0 | 0.0 | 0.00 | 0.00 | 0.00 | 91 | 1016.7 |
| 20260506095041 | 11 | 98 | 0.0 | 0.0 | 0.00 | 0.00 | 0.00 | 91 | 1016.6 |
| 20260506094539 | 11 | 121 | 0.0 | 0.0 | 0.00 | 0.00 | 0.00 | 91 | 1016.6 |
| 20260506094037 | 11 | 83 | 0.0 | 0.0 | 0.00 | 0.00 | 0.00 | 91 | 1016.8 |
| 20260506093535 | 11 | 53 | 0.0 | 0.0 | 0.00 | 0.00 | 0.00 | 91 | 1016.8 |
| 20260506093032 | 11 | 92 | 0.0 | 0.0 | 0.00 | 0.00 | 0.00 | 91 | 1016.7 |
| 20260506092530 | 11 | 96 | 0.0 | 0.0 | 0.00 | 0.00 | 0.00 | 91 | 1016.6 |
| 20260506092026 | 11 | 105 | 0.0 | 0.0 | 0.00 | 0.00 | 0.00 | 91 | 1016.8 |
| 20260506091525 | 11 | 68 | 0.0 | 0.0 | 0.00 | 0.00 | 0.00 | 91 | 1016.9 |
| 20260506091022 | 11 | 69 | 0.0 | 0.0 | 0.00 | 0.00 | 0.00 | 91 | 1017.0 |
| 20260506090520 | 11 | 88 | 0.0 | 0.0 | 0.00 | 0.00 | 0.00 | 91 | 1017.0 |
| 20260506090015 | 11 | 66 | 0.0 | 0.0 | 0.00 | 0.00 | 0.00 | 91 | 1016.9 |
| 20260506085513 | 11 | 106 | 0.0 | 0.0 | 0.00 | 0.00 | 0.00 | 90 | 1016.9 |
| 20260506085009 | 11 | 100 | 0.0 | 0.0 | 0.00 | 0.00 | 0.00 | 90 | 1017.0 |
| 20260506084506 | 11 | 111 | 0.0 | 0.0 | 0.00 | 0.00 | 0.00 | 90 | 1017.0 |
| 20260506084002 | 11 | 50 | 0.0 | 0.0 | 0.00 | 0.00 | 0.00 | 90 | 1016.9 |
| 20260506083459 | 11 | 75 | 0.0 | 0.0 | 0.00 | 0.00 | 0.00 | 91 | 1017.1 |
| 20260506082956 | 11 | 92 | 0.0 | 0.0 | 0.00 | 0.00 | 0.00 | 91 | 1017.1 |
| 20260506082454 | 11 | 110 | 0.0 | 0.0 | 0.00 | 0.00 | 0.00 | 91 | 1017.3 |
| 20260506081949 | 11 | 34 | 0.0 | 0.0 | 0.00 | 0.00 | 0.00 | 91 | 1017.1 |
| 20260506081448 | 11 | 88 | 0.0 | 0.0 | 0.00 | 0.00 | 0.00 | 91 | 1017.1 |
| 20260506080945 | 12 | 56 | 0.0 | 0.0 | 0.00 | 0.00 | 0.00 | 91 | 1017.0 |
| 20260506080442 | 12 | 109 | 0.0 | 0.0 | 0.00 | 0.00 | 0.00 | 91 | 1017.0 |
| 20260506073426 | 12 | 57 | 0.0 | 0.0 | 0.00 | 0.00 | 0.00 | 91 | 1017.1 |
| 20260506072923 | 12 | 83 | 0.0 | 0.0 | 0.00 | 0.00 | 0.00 | 91 | 1017.0 |
| 20260506072420 | 12 | 88 | 0.0 | 0.0 | 0.00 | 0.00 | 0.00 | 91 | 1016.8 |
| 20260506071917 | 12 | 106 | 0.0 | 0.0 | 0.00 | 0.00 | 0.00 | 90 | 1017.0 |
| 20260506071416 | 12 | 112 | 0.0 | 0.0 | 0.00 | 0.00 | 0.00 | 90 | 1016.7 |
| 20260506070912 | 12 | 111 | 0.0 | 0.0 | 0.00 | 0.00 | 0.00 | 90 | 1016.8 |
| 20260506070409 | 12 | 122 | 0.0 | 0.0 | 0.00 | 0.00 | 0.00 | 90 | 1016.7 |
| 20260506062346 | 13 | 64 | 0.0 | 0.0 | 0.00 | 0.00 | 0.00 | 89 | 1016.2 |
| 20260506061842 | 13 | 105 | 0.0 | 0.0 | 0.00 | 0.00 | 0.00 | 89 | 1016.0 |
| 20260506061339 | 13 | 137 | 0.0 | 0.0 | 0.00 | 0.00 | 0.00 | 89 | 1016.1 |
| 20260506060837 | 13 | 136 | 0.0 | 0.0 | 0.00 | 0.00 | 0.00 | 89 | 1016.0 |
| 20260506060335 | 13 | 122 | 0.0 | 0.0 | 0.00 | 0.00 | 0.00 | 88 | 1016.0 |
| 20260506051306 | 13 | 145 | 0.0 | 0.0 | 0.00 | 0.00 | 0.00 | 88 | 1015.8 |
| 20260506050805 | 13 | 144 | 0.0 | 0.0 | 0.00 | 0.00 | 0.00 | 88 | 1015.7 |
| 20260506050302 | 13 | 167 | 0.0 | 0.0 | 0.00 | 0.00 | 0.00 | 88 | 1015.9 |
| 20260506044752 | 13 | 169 | 0.0 | 0.0 | 0.00 | 0.00 | 0.00 | 88 | 1015.5 |
| 20260506044250 | 13 | 176 | 0.0 | 0.0 | 0.00 | 0.00 | 0.00 | 88 | 1015.5 |
| 20260506043747 | 13 | 165 | 0.0 | 0.0 | 0.00 | 0.00 | 0.00 | 88 | 1015.7 |
| 20260506043244 | 13 | 146 | 0.0 | 0.0 | 0.00 | 0.00 | 0.00 | 88 | 1015.5 |
| 20260506042743 | 13 | 149 | 0.0 | 0.0 | 0.00 | 0.00 | 0.00 | 88 | 1015.4 |
| 20260506042241 | 13 | 147 | 0.0 | 0.0 | 0.00 | 0.00 | 0.00 | 88 | 1015.3 |
| 20260506041739 | 13 | 153 | 0.0 | 0.0 | 0.00 | 0.00 | 0.00 | 88 | 1015.2 |
| 20260506041236 | 13 | 164 | 0.0 | 0.0 | 0.00 | 0.00 | 0.00 | 88 | 1015.4 |
| 20260506040733 | 13 | 168 | 0.0 | 0.0 | 0.00 | 0.00 | 0.00 | 88 | 1015.0 |
| 20260506040230 | 13 | 171 | 0.0 | 0.0 | 0.00 | 0.00 | 0.00 | 88 | 1015.2 |
| 20260506035727 | 14 | 164 | 0.0 | 0.0 | 0.00 | 0.00 | 0.00 | 88 | 1015.2 |
| 20260506035224 | 14 | 170 | 0.0 | 0.0 | 0.00 | 0.00 | 0.00 | 88 | 1014.9 |
| 20260506034720 | 14 | 173 | 0.0 | 0.0 | 0.00 | 0.00 | 0.00 | 87 | 1014.9 |
| 20260506034218 | 14 | 180 | 0.0 | 0.0 | 0.00 | 0.00 | 0.00 | 87 | 1015.0 |
| 20260506033715 | 14 | 154 | 0.0 | 0.0 | 0.00 | 0.00 | 0.00 | 87 | 1014.8 |
| 20260506033212 | 14 | 200 | 0.0 | 0.0 | 0.00 | 0.00 | 0.00 | 87 | 1014.6 |
| 20260506032709 | 14 | 173 | 0.0 | 0.0 | 0.00 | 0.00 | 0.00 | 87 | 1014.8 |
| 20260506032206 | 14 | 202 | 0.0 | 0.0 | 0.00 | 0.00 | 0.00 | 86 | 1014.5 |
| 20260506031702 | 14 | 203 | 0.0 | 0.0 | 0.00 | 0.00 | 0.00 | 86 | 1014.6 |
| 20260506031200 | 14 | 168 | 0.0 | 0.0 | 0.00 | 0.00 | 0.00 | 86 | 1014.4 |
| 20260506030658 | 14 | 180 | 0.0 | 0.0 | 0.00 | 0.00 | 0.00 | 85 | 1014.2 |
| 20260506030155 | 15 | 155 | 0.0 | 1.6 | 0.00 | 0.00 | 0.00 | 85 | 1014.2 |
| 20260506025652 | 15 | 198 | 0.0 | 0.0 | 0.00 | 0.00 | 0.00 | 84 | 1014.0 |
| 20260506025148 | 15 | 163 | 0.0 | 0.0 | 0.00 | 0.00 | 0.00 | 84 | 1014.1 |
| 20260506024646 | 15 | 159 | 0.0 | 0.0 | 0.00 | 0.00 | 0.00 | 83 | 1013.8 |
| 20260506024142 | 15 | 218 | 0.0 | 1.6 | 0.00 | 0.00 | 0.00 | 82 | 1013.9 |